Fischer, Texas
Current Conditions -  °F | °C
As of 12:51 AM on Thursday 23 Oct 2014 (Local Time) from KBAZ Reporting Station
Clear Clear  
Wind Chill: 72°   Ceiling: Unl
Heat Index: 72°   Visibility: 10mi
Dew Point: 58°   Wind: 5mph
Humidity: 61%   Direction: 110°ESE
Pressure: 30.08"   Gusts: NA
Location:  29.98°N, 98.27°W
Report Text: KBAZ 230551Z AUTO 11004KT 10SM CLR 22/14 A3008 RMK AO2 SLP178 T02220144 10267 20217 403000150 51003
Loading
Personal Weather Stations






























Interactive Weather Map
Tropical Storm Tracking
New forecast layout! Learn more

10-Day Weather Forecast

Advertisements
Track Severe Weather on mobile